Terminal Aerodrome Forecast
Issued by NWS Tuscon, AZ

Home | Current Version | Previous Version | Text Only | Print | Product List | Glossary On
Versions: 1 2 3 4 5 6 7 8 9 10 11 12
397
FTUS45 KTWC 231731
TAFTUS
TAF
KTUS 231731Z 2318/2418 10006KT P6SM SKC
     FM232300 33006KT P6SM SKC
     FM240600 14008KT P6SM SKC
     FM241500 13016G22KT P6SM SKC=

USA.gov is the U.S. government's official web portal to all federal, state and local government web resources and services.